Time;durP1;ratioP1;P1;durP2;ratioP2;P2;SDS_P1;SDS_P2;PMS_P1;PMS_P2;Temp;Humidity;BMP_temperature;BMP_pressure;BME280_temperature;BME280_humidity;BME280_pressure;Samples;Min_cycle;Max_cycle;Signal;HPM_P1;HPM_P2
2023/08/09 00:00:46;;;;;;;6.03;2.00;;;11.40;99.90;;;;;;5111158;28;20576;-67
2023/08/09 00:03:33;;;;;;;6.17;2.20;;;11.40;99.90;;;;;;5112012;28;20193;-68
2023/08/09 00:06:22;;;;;;;5.00;1.70;;;11.40;99.90;;;;;;5111539;28;20219;-67
2023/08/09 00:09:09;;;;;;;2.50;2.00;;;11.30;99.90;;;;;;5111803;28;20199;-67
2023/08/09 00:11:57;;;;;;;7.27;2.10;;;11.30;99.90;;;;;;5111083;28;20198;-68
2023/08/09 00:14:45;;;;;;;3.27;2.10;;;11.20;99.90;;;;;;5111241;28;20214;-68
2023/08/09 00:17:32;;;;;;;2.53;1.87;;;11.20;99.90;;;;;;5111605;28;20191;-68
2023/08/09 00:20:20;;;;;;;6.30;2.10;;;11.20;99.90;;;;;;5106443;28;20202;-68
2023/08/09 00:23:09;;;;;;;3.77;2.03;;;11.30;99.90;;;;;;5111232;28;20230;-68
2023/08/09 00:25:56;;;;;;;6.33;2.20;;;11.30;99.90;;;;;;5110983;28;20195;-68
2023/08/09 00:28:44;;;;;;;5.83;2.07;;;11.30;99.90;;;;;;5111563;28;20578;-67
2023/08/09 00:31:31;;;;;;;2.43;2.10;;;11.30;99.90;;;;;;5110719;28;20205;-68
2023/08/09 00:34:18;;;;;;;7.10;1.90;;;11.30;99.90;;;;;;5110954;28;20194;-68
2023/08/09 00:37:06;;;;;;;4.43;2.23;;;11.30;99.90;;;;;;5110833;28;20195;-68
2023/08/09 00:39:55;;;;;;;2.90;2.53;;;11.40;99.90;;;;;;5111354;28;20224;-68
2023/08/09 00:42:43;;;;;;;4.07;2.37;;;11.40;99.90;;;;;;5111535;28;20215;-68
2023/08/09 00:45:30;;;;;;;5.27;2.67;;;11.40;99.90;;;;;;5110799;28;20202;-68
2023/08/09 00:48:18;;;;;;;5.80;2.60;;;11.40;99.90;;;;;;5111206;28;20200;-68
2023/08/09 00:51:05;;;;;;;5.57;2.43;;;11.40;99.90;;;;;;5115545;28;20225;-68
2023/08/09 00:53:53;;;;;;;8.83;2.47;;;11.50;99.90;;;;;;5115508;28;20199;-68
2023/08/09 00:56:41;;;;;;;6.37;2.50;;;11.40;99.90;;;;;;5115500;28;20197;-68
2023/08/09 00:59:29;;;;;;;4.87;2.17;;;11.50;99.90;;;;;;5115124;28;20199;-68
2023/08/09 01:02:16;;;;;;;6.60;2.50;;;11.50;99.90;;;;;;5115096;28;20211;-68
2023/08/09 01:05:04;;;;;;;7.93;2.20;;;11.50;99.90;;;;;;5115685;28;20675;-68
2023/08/09 01:07:54;;;;;;;3.83;2.20;;;11.50;99.90;;;;;;5115444;28;20687;-68
2023/08/09 01:10:44;;;;;;;4.07;2.60;;;11.50;99.90;;;;;;5095753;28;20205;-68
2023/08/09 01:13:33;;;;;;;4.80;2.90;;;11.60;99.90;;;;;;5094676;28;20249;-68
2023/08/09 01:16:21;;;;;;;4.50;2.43;;;11.60;99.90;;;;;;5093659;28;20282;-68
2023/08/09 01:19:12;;;;;;;6.23;2.80;;;11.60;99.90;;;;;;5093959;28;20201;-68
2023/08/09 01:22:00;;;;;;;7.27;2.97;;;11.70;99.90;;;;;;5093953;28;20744;-68
2023/08/09 01:24:49;;;;;;;5.23;2.50;;;11.70;99.90;;;;;;5094231;28;20195;-67
2023/08/09 01:27:36;;;;;;;3.90;2.60;;;11.70;99.90;;;;;;5099747;28;20659;-68
2023/08/09 01:30:23;;;;;;;7.43;2.60;;;11.70;99.90;;;;;;5115144;28;20539;-68
2023/08/09 01:33:11;;;;;;;4.53;2.40;;;11.70;99.90;;;;;;5114808;28;20196;-68
2023/08/09 01:36:00;;;;;;;3.10;2.40;;;11.70;99.90;;;;;;5114666;28;20553;-68
2023/08/09 01:38:50;;;;;;;4.27;2.47;;;11.80;99.90;;;;;;5114366;28;20577;-68
2023/08/09 01:41:41;;;;;;;4.73;2.70;;;11.70;99.90;;;;;;5114726;28;20212;-68
2023/08/09 01:44:29;;;;;;;10.13;2.60;;;11.70;99.90;;;;;;5114816;28;20205;-68
2023/08/09 01:47:16;;;;;;;4.80;2.90;;;11.80;99.90;;;;;;5114525;28;20195;-68
2023/08/09 01:50:04;;;;;;;3.83;2.80;;;11.70;99.90;;;;;;5113776;28;20198;-68
2023/08/09 01:52:55;;;;;;;4.53;3.10;;;11.80;99.90;;;;;;5113972;28;20221;-68
2023/08/09 01:55:42;;;;;;;4.13;2.70;;;11.80;99.90;;;;;;5114335;28;20201;-68
2023/08/09 01:58:31;;;;;;;8.30;2.33;;;11.70;99.90;;;;;;5113773;28;20207;-68
2023/08/09 02:01:18;;;;;;;4.77;2.47;;;11.70;99.90;;;;;;5113212;28;20223;-68
2023/08/09 02:04:09;;;;;;;3.70;2.60;;;11.80;99.90;;;;;;5113427;28;20215;-68
2023/08/09 02:06:56;;;;;;;6.23;3.00;;;11.80;99.90;;;;;;5114129;28;20605;-68
2023/08/09 02:09:43;;;;;;;7.30;2.57;;;11.80;99.90;;;;;;5113443;28;20196;-68
2023/08/09 02:12:30;;;;;;;5.83;2.60;;;11.80;99.90;;;;;;5114098;28;20203;-68
2023/08/09 02:15:21;;;;;;;5.37;3.20;;;11.80;99.90;;;;;;5113569;28;20202;-68
2023/08/09 02:18:09;;;;;;;4.60;2.57;;;11.80;99.90;;;;;;5113905;28;20199;-68
2023/08/09 02:20:56;;;;;;;4.83;2.63;;;11.80;99.90;;;;;;5113668;28;20199;-68
2023/08/09 02:23:43;;;;;;;4.60;2.67;;;11.80;99.90;;;;;;5113676;28;20687;-68
2023/08/09 02:26:30;;;;;;;6.00;2.57;;;11.70;99.90;;;;;;5113278;28;20231;-68
2023/08/09 02:29:18;;;;;;;3.83;2.20;;;11.80;99.90;;;;;;5113726;28;20203;-68
2023/08/09 02:32:07;;;;;;;4.80;2.60;;;11.80;99.90;;;;;;5113872;28;20199;-68
2023/08/09 02:34:54;;;;;;;5.00;2.60;;;11.80;99.90;;;;;;5113395;28;20253;-68
2023/08/09 02:37:42;;;;;;;7.23;2.83;;;11.80;99.90;;;;;;5113270;28;20624;-68
2023/08/09 02:40:29;;;;;;;5.43;2.63;;;11.80;99.90;;;;;;5112944;28;20202;-68
2023/08/09 02:43:17;;;;;;;4.40;2.40;;;11.80;99.90;;;;;;5112830;28;20216;-68
2023/08/09 02:46:05;;;;;;;6.33;2.80;;;11.80;99.90;;;;;;5113303;28;20210;-68
2023/08/09 02:48:54;;;;;;;5.00;2.20;;;11.80;99.90;;;;;;5113877;28;20571;-68
2023/08/09 02:51:41;;;;;;;3.50;2.50;;;11.70;99.90;;;;;;5113196;28;20215;-68
2023/08/09 02:54:29;;;;;;;6.13;2.30;;;11.60;99.90;;;;;;5113161;28;20215;-68
2023/08/09 02:57:16;;;;;;;6.80;2.90;;;11.70;99.90;;;;;;5113262;28;20206;-68
2023/08/09 03:00:06;;;;;;;3.10;2.40;;;11.80;99.90;;;;;;5108060;28;20233;-68
2023/08/09 03:02:53;;;;;;;6.27;3.23;;;11.80;99.90;;;;;;5091428;28;20285;-68
2023/08/09 03:05:42;;;;;;;6.27;2.83;;;11.80;99.90;;;;;;5092387;28;20562;-68
2023/08/09 03:08:29;;;;;;;8.13;2.33;;;11.80;99.90;;;;;;5092205;28;20193;-68
2023/08/09 03:11:18;;;;;;;5.60;3.00;;;11.80;99.90;;;;;;5091991;28;20200;-68
2023/08/09 03:14:05;;;;;;;4.03;2.60;;;11.90;99.90;;;;;;5091768;28;20572;-68
2023/08/09 03:16:53;;;;;;;10.40;3.03;;;11.90;99.90;;;;;;5091977;28;20204;-68
2023/08/09 03:19:40;;;;;;;12.97;3.63;;;11.90;99.90;;;;;;5092275;28;20197;-68
2023/08/09 03:22:29;;;;;;;4.40;3.07;;;11.90;99.90;;;;;;5092264;28;20223;-68
2023/08/09 03:25:16;;;;;;;7.57;4.13;;;11.90;99.90;;;;;;5092668;28;20250;-68
2023/08/09 03:28:04;;;;;;;16.53;7.20;;;11.90;99.90;;;;;;5091840;28;20192;-68
2023/08/09 03:30:51;;;;;;;12.20;7.40;;;11.90;99.90;;;;;;5092585;28;20212;-68
2023/08/09 03:33:38;;;;;;;10.93;6.00;;;11.90;99.90;;;;;;5090704;28;20196;-68
2023/08/09 03:36:26;;;;;;;7.03;3.90;;;11.90;99.90;;;;;;5091413;28;20203;-68
2023/08/09 03:39:15;;;;;;;9.10;4.33;;;11.90;99.90;;;;;;5091176;28;20249;-69
2023/08/09 03:42:03;;;;;;;5.80;3.90;;;11.90;99.90;;;;;;5091286;28;20202;-68
2023/08/09 03:44:50;;;;;;;10.27;3.77;;;11.80;99.90;;;;;;5091133;28;20199;-68
2023/08/09 03:47:38;;;;;;;8.07;3.90;;;11.80;99.90;;;;;;5092072;28;20210;-68
2023/08/09 03:50:26;;;;;;;9.43;4.93;;;11.90;99.90;;;;;;5092090;28;20568;-68
2023/08/09 03:53:13;;;;;;;8.90;4.47;;;11.80;99.90;;;;;;5090784;28;20202;-68
2023/08/09 03:56:02;;;;;;;9.40;4.40;;;11.80;99.90;;;;;;5090774;28;20284;-68
2023/08/09 03:58:50;;;;;;;9.37;4.23;;;11.80;99.90;;;;;;5090788;28;20201;-68
2023/08/09 04:01:37;;;;;;;8.03;3.67;;;11.70;99.90;;;;;;5090796;28;20228;-68
2023/08/09 04:04:24;;;;;;;8.57;4.47;;;11.80;99.90;;;;;;5091318;28;20546;-68
2023/08/09 04:07:11;;;;;;;4.97;3.17;;;11.80;99.90;;;;;;5091012;28;20193;-68
2023/08/09 04:09:59;;;;;;;5.67;3.63;;;11.80;99.90;;;;;;5090395;28;20206;-68
2023/08/09 04:12:48;;;;;;;5.90;3.30;;;11.90;99.90;;;;;;5090134;28;20215;-68
2023/08/09 04:15:35;;;;;;;6.33;3.50;;;11.90;99.90;;;;;;5090816;28;20195;-68
2023/08/09 04:18:23;;;;;;;9.30;4.10;;;11.90;99.90;;;;;;5090209;28;20199;-68
2023/08/09 04:21:10;;;;;;;6.83;3.57;;;12.00;99.90;;;;;;5091043;28;20235;-68
2023/08/09 04:23:57;;;;;;;10.00;3.90;;;12.00;99.90;;;;;;5089168;28;20223;-69
2023/08/09 04:26:45;;;;;;;10.70;4.37;;;12.10;99.90;;;;;;5091371;28;20207;-68
2023/08/09 04:29:33;;;;;;;6.20;3.60;;;12.10;99.90;;;;;;5091125;28;20201;-69
2023/08/09 04:32:21;;;;;;;10.37;3.70;;;12.10;99.90;;;;;;5090812;28;20201;-68
2023/08/09 04:35:09;;;;;;;7.63;4.40;;;12.20;99.90;;;;;;5090986;28;20202;-68
2023/08/09 04:37:56;;;;;;;7.77;4.57;;;12.20;99.90;;;;;;5090917;28;20256;-68
2023/08/09 04:40:45;;;;;;;10.27;4.20;;;12.20;99.90;;;;;;5090844;28;20663;-68
2023/08/09 04:43:32;;;;;;;9.57;4.60;;;12.30;99.90;;;;;;5091403;28;20357;-68
2023/08/09 04:46:21;;;;;;;7.73;4.43;;;12.40;99.90;;;;;;5091641;28;20680;-68
2023/08/09 04:49:08;;;;;;;11.53;4.27;;;12.50;99.90;;;;;;5090235;28;20660;-68
2023/08/09 04:51:55;;;;;;;8.80;4.03;;;12.50;99.90;;;;;;5090419;28;20215;-68
2023/08/09 04:54:42;;;;;;;12.53;4.53;;;12.60;99.90;;;;;;5090514;28;20209;-68
2023/08/09 04:57:31;;;;;;;14.57;5.03;;;12.70;99.90;;;;;;5091735;28;20227;-68
2023/08/09 05:00:18;;;;;;;9.30;5.23;;;12.80;99.90;;;;;;5097718;28;20233;-68
2023/08/09 05:03:07;;;;;;;9.10;4.10;;;12.70;99.90;;;;;;5110847;28;20209;-68
2023/08/09 05:05:54;;;;;;;8.17;4.43;;;12.60;99.90;;;;;;5111256;28;20573;-68
2023/08/09 05:08:41;;;;;;;7.53;4.73;;;12.60;99.90;;;;;;5111201;28;20208;-68
2023/08/09 05:11:29;;;;;;;8.23;4.13;;;12.80;99.90;;;;;;5111096;28;20206;-68
2023/08/09 05:14:16;;;;;;;6.90;3.87;;;13.00;99.90;;;;;;5110911;28;20189;-68
2023/08/09 05:17:03;;;;;;;10.30;4.30;;;13.20;99.90;;;;;;5111087;28;20283;-69
2023/08/09 05:19:52;;;;;;;7.67;3.93;;;13.40;99.90;;;;;;5111134;28;20207;-69
2023/08/09 05:22:39;;;;;;;9.60;4.33;;;13.60;99.90;;;;;;5110431;28;20197;-69
2023/08/09 05:25:27;;;;;;;8.47;3.83;;;13.80;99.90;;;;;;5110951;28;20211;-68
2023/08/09 05:28:14;;;;;;;10.00;3.50;;;14.00;99.90;;;;;;5110641;28;20232;-68
2023/08/09 05:31:01;;;;;;;10.10;3.83;;;14.10;99.90;;;;;;5111042;28;20198;-68
2023/08/09 05:33:48;;;;;;;5.03;3.27;;;14.20;99.90;;;;;;5111586;28;20205;-68
2023/08/09 05:36:37;;;;;;;7.33;3.53;;;14.20;99.90;;;;;;5114226;28;20666;-68
2023/08/09 05:39:24;;;;;;;8.67;3.60;;;14.00;99.90;;;;;;5114266;28;20198;-69
2023/08/09 05:42:12;;;;;;;8.37;3.40;;;14.00;99.90;;;;;;5114437;28;20208;-69
2023/08/09 05:44:59;;;;;;;5.77;3.40;;;14.10;99.90;;;;;;5114267;28;20215;-69
2023/08/09 05:47:46;;;;;;;7.17;2.87;;;14.20;99.90;;;;;;5114103;28;20281;-69
2023/08/09 05:50:34;;;;;;;7.83;3.07;;;14.20;99.90;;;;;;5115191;28;20207;-69
2023/08/09 05:53:22;;;;;;;6.27;3.20;;;14.20;99.90;;;;;;5114441;28;20205;-69
2023/08/09 05:56:10;;;;;;;6.23;3.23;;;14.40;99.90;;;;;;5114150;28;20202;-69
2023/08/09 05:58:57;;;;;;;7.17;2.80;;;14.70;99.90;;;;;;5113690;28;20680;-69
2023/08/09 06:01:44;;;;;;;7.90;3.30;;;14.90;99.90;;;;;;5094654;28;20239;-69
2023/08/09 06:04:32;;;;;;;8.47;3.33;;;15.20;99.90;;;;;;5093298;28;20220;-69
2023/08/09 06:07:19;;;;;;;6.67;3.10;;;15.60;99.90;;;;;;5093067;28;20716;-69
2023/08/09 06:10:08;;;;;;;8.27;2.93;;;16.00;99.90;;;;;;5092899;28;20219;-69
2023/08/09 06:12:55;;;;;;;4.30;2.50;;;16.40;99.90;;;;;;5094018;28;20203;-69
2023/08/09 06:15:43;;;;;;;3.13;2.10;;;16.50;99.90;;;;;;5092804;28;20203;-69
2023/08/09 06:18:30;;;;;;;4.03;2.10;;;16.40;99.90;;;;;;5093417;28;20573;-69
2023/08/09 06:21:17;;;;;;;3.30;2.30;;;16.40;99.90;;;;;;5092395;28;20203;-69
2023/08/09 06:24:05;;;;;;;4.57;2.10;;;16.50;99.90;;;;;;5092204;28;20222;-69
2023/08/09 06:26:54;;;;;;;3.17;2.00;;;16.50;99.90;;;;;;5092438;28;20202;-69
2023/08/09 06:29:41;;;;;;;6.30;2.20;;;16.50;99.90;;;;;;5092822;28;20192;-69
2023/08/09 06:32:29;;;;;;;5.60;2.00;;;16.60;99.90;;;;;;5092889;28;20205;-69
2023/08/09 06:35:16;;;;;;;4.10;2.13;;;16.70;99.90;;;;;;5092582;28;20193;-69
2023/08/09 06:38:04;;;;;;;4.30;2.03;;;16.80;99.90;;;;;;5092386;28;20206;-69
2023/08/09 06:40:51;;;;;;;5.13;2.13;;;16.70;99.90;;;;;;5092109;28;20198;-69
2023/08/09 06:43:40;;;;;;;6.63;2.10;;;16.60;99.90;;;;;;5092654;28;20219;-69
2023/08/09 06:46:28;;;;;;;9.33;2.13;;;16.70;99.90;;;;;;5092396;28;20212;-69
2023/08/09 06:49:15;;;;;;;4.90;2.30;;;17.10;99.90;;;;;;5092333;28;20221;-69
2023/08/09 06:52:03;;;;;;;4.40;1.93;;;17.40;99.90;;;;;;5092277;28;20230;-69
2023/08/09 06:54:50;;;;;;;3.30;2.00;;;17.70;99.90;;;;;;5091680;28;20200;-69
2023/08/09 06:57:37;;;;;;;9.50;2.10;;;17.90;99.90;;;;;;5092248;28;20201;-69
2023/08/09 07:00:26;;;;;;;3.40;1.97;;;18.10;99.90;;;;;;5099997;28;20711;-69
2023/08/09 07:03:13;;;;;;;7.13;1.93;;;18.40;99.90;;;;;;5113093;28;20200;-69
2023/08/09 07:06:01;;;;;;;5.67;1.77;;;18.70;99.90;;;;;;5113047;28;20191;-69
2023/08/09 07:08:49;;;;;;;6.87;1.90;;;18.90;99.90;;;;;;5113056;28;20274;-69
2023/08/09 07:11:36;;;;;;;5.37;2.27;;;19.00;99.90;;;;;;5112166;28;20203;-68
2023/08/09 07:14:23;;;;;;;14.27;3.27;;;18.90;99.90;;;;;;5112854;28;20676;-68
2023/08/09 07:17:12;;;;;;;2.07;1.60;;;18.60;99.90;;;;;;5113069;28;20191;-68
2023/08/09 07:19:59;;;;;;;3.57;2.10;;;18.30;99.90;;;;;;5112627;28;20686;-68
2023/08/09 07:22:47;;;;;;;2.40;1.70;;;18.30;99.90;;;;;;5112771;28;20195;-68
2023/08/09 07:25:34;;;;;;;2.60;1.63;;;18.30;99.90;;;;;;5111864;28;20219;-68
2023/08/09 07:28:21;;;;;;;3.03;1.60;;;18.20;99.90;;;;;;5111664;28;20195;-68
2023/08/09 07:31:17;;;;;;;5.07;1.70;;;18.00;99.90;;;;;;5112428;28;20195;-68
2023/08/09 07:34:06;;;;;;;4.90;1.53;;;18.00;99.90;;;;;;5112298;28;20283;-68
2023/08/09 07:36:53;;;;;;;7.23;1.70;;;18.00;99.90;;;;;;5112232;28;20195;-68
2023/08/09 07:39:40;;;;;;;10.17;2.40;;;18.00;99.90;;;;;;5111864;28;20275;-68
2023/08/09 07:42:28;;;;;;;8.00;2.20;;;18.00;99.90;;;;;;5111971;28;20607;-68
2023/08/09 07:45:15;;;;;;;4.23;1.70;;;18.30;99.90;;;;;;5111443;28;20211;-68
2023/08/09 07:48:02;;;;;;;2.30;1.60;;;18.40;99.90;;;;;;5112674;28;20198;-68
2023/08/09 07:50:51;;;;;;;3.30;1.73;;;18.60;99.90;;;;;;5112019;28;20222;-68
2023/08/09 07:53:38;;;;;;;3.67;1.80;;;18.90;99.90;;;;;;5112795;28;20210;-68
2023/08/09 07:56:26;;;;;;;3.20;1.80;;;19.00;99.90;;;;;;5112141;28;20195;-68
2023/08/09 07:59:13;;;;;;;3.13;1.70;;;18.90;99.90;;;;;;5111478;28;20194;-68
2023/08/09 08:02:00;;;;;;;4.73;1.80;;;18.90;99.90;;;;;;5111206;28;20195;-68
2023/08/09 08:04:47;;;;;;;2.23;1.80;;;19.10;99.90;;;;;;5111905;28;20302;-68
2023/08/09 08:07:36;;;;;;;3.30;1.57;;;19.40;99.90;;;;;;5112106;28;20215;-68
2023/08/09 08:10:23;;;;;;;2.73;1.90;;;19.50;99.90;;;;;;5112224;28;20203;-68
2023/08/09 08:13:11;;;;;;;4.17;2.00;;;19.60;99.90;;;;;;5111421;28;20206;-68
2023/08/09 08:15:58;;;;;;;3.37;1.83;;;20.00;99.90;;;;;;5111034;28;20407;-68
2023/08/09 08:18:45;;;;;;;3.60;1.90;;;20.20;99.90;;;;;;5111893;28;20674;-68
2023/08/09 08:21:33;;;;;;;4.20;1.73;;;20.40;99.90;;;;;;5111369;28;20200;-68
2023/08/09 08:24:21;;;;;;;3.30;1.87;;;20.70;99.90;;;;;;5111355;28;20211;-67
2023/08/09 08:27:09;;;;;;;2.40;1.90;;;20.20;99.90;;;;;;5111620;28;20207;-68
2023/08/09 08:29:56;;;;;;;6.50;2.00;;;20.20;99.90;;;;;;5111571;28;20199;-68
2023/08/09 08:32:44;;;;;;;2.57;1.83;;;20.10;99.90;;;;;;5111503;28;20199;-68
2023/08/09 08:35:34;;;;;;;3.10;1.60;;;20.00;99.90;;;;;;5111586;28;20191;-68
2023/08/09 08:38:21;;;;;;;1.90;1.70;;;20.00;99.90;;;;;;5111583;28;20203;-67
2023/08/09 08:41:10;;;;;;;3.73;1.80;;;19.90;99.90;;;;;;5110857;28;20283;-68
2023/08/09 08:43:57;;;;;;;8.37;2.20;;;19.70;99.90;;;;;;5111180;28;20188;-68
2023/08/09 08:46:44;;;;;;;6.10;1.70;;;19.80;99.90;;;;;;5110840;28;20199;-68
2023/08/09 08:49:32;;;;;;;5.30;1.87;;;20.00;99.90;;;;;;5111062;28;20210;-67
2023/08/09 08:52:19;;;;;;;4.27;1.67;;;20.20;99.90;;;;;;5110688;28;20216;-68
2023/08/09 08:55:09;;;;;;;3.70;2.13;;;20.50;99.90;;;;;;5111440;28;20222;-68
2023/08/09 08:57:58;;;;;;;4.23;1.73;;;20.70;99.90;;;;;;5111264;28;20191;-68
2023/08/09 09:00:46;;;;;;;3.23;1.47;;;20.50;99.90;;;;;;5111140;28;20655;-68
2023/08/09 09:03:33;;;;;;;2.90;1.70;;;20.70;99.90;;;;;;5111322;28;20192;-67
2023/08/09 09:06:21;;;;;;;3.07;1.80;;;20.90;99.90;;;;;;5111241;28;20191;-68
2023/08/09 09:09:11;;;;;;;4.00;1.30;;;20.60;99.90;;;;;;5110354;28;20202;-69
2023/08/09 09:12:00;;;;;;;3.87;1.60;;;20.90;99.90;;;;;;5115125;28;20200;-68
2023/08/09 09:14:51;;;;;;;4.53;1.40;;;21.10;99.90;;;;;;5114681;28;20202;-68
2023/08/09 09:17:39;;;;;;;4.97;1.80;;;21.20;99.90;;;;;;5115052;28;20613;-68
2023/08/09 09:20:29;;;;;;;2.67;1.50;;;20.90;99.90;;;;;;5115071;28;20199;-68
2023/08/09 09:23:27;;;;;;;1.83;1.50;;;20.60;99.90;;;;;;5114963;28;20203;-68
2023/08/09 09:26:15;;;;;;;3.23;1.57;;;20.40;99.90;;;;;;5114327;28;20602;-67
2023/08/09 09:29:07;;;;;;;5.07;1.50;;;20.20;99.90;;;;;;5114866;28;20203;-67
2023/08/09 09:31:59;;;;;;;2.83;1.73;;;20.20;99.90;;;;;;5115020;28;20668;-67
2023/08/09 09:34:47;;;;;;;4.80;1.40;;;19.80;99.90;;;;;;5114905;28;20456;-67
2023/08/09 09:37:35;;;;;;;4.57;1.50;;;19.90;99.90;;;;;;5114934;28;20760;-67
2023/08/09 09:40:23;;;;;;;5.50;1.40;;;19.70;99.90;;;;;;5115018;28;20199;-68
2023/08/09 09:43:10;;;;;;;2.13;1.50;;;19.80;99.90;;;;;;5114076;28;20304;-68
2023/08/09 09:45:58;;;;;;;2.67;1.30;;;19.80;99.90;;;;;;5114673;28;20246;-67
2023/08/09 09:48:49;;;;;;;2.47;1.70;;;19.70;99.90;;;;;;5114560;28;20198;-67
2023/08/09 09:51:36;;;;;;;4.93;1.70;;;19.50;99.90;;;;;;5114308;28;20254;-68
2023/08/09 09:54:23;;;;;;;4.17;1.50;;;19.50;99.90;;;;;;5113799;28;20195;-67
2023/08/09 09:57:11;;;;;;;3.40;1.60;;;19.40;99.90;;;;;;5113837;28;20191;-67
2023/08/09 09:59:59;;;;;;;3.63;1.50;;;19.30;99.90;;;;;;5113728;28;20234;-67
2023/08/09 10:02:47;;;;;;;1.90;1.43;;;19.30;99.90;;;;;;5114940;28;20203;-67
2023/08/09 10:05:46;;;;;;;3.33;1.50;;;19.20;99.90;;;;;;5113626;28;20295;-67
2023/08/09 10:08:34;;;;;;;2.80;1.33;;;19.10;99.90;;;;;;5113835;28;20235;-68
2023/08/09 10:11:22;;;;;;;2.80;1.47;;;19.60;99.90;;;;;;5093387;28;20199;-67
2023/08/09 10:14:09;;;;;;;2.60;1.50;;;19.90;99.90;;;;;;5093253;28;20196;-68
2023/08/09 10:16:57;;;;;;;4.03;1.37;;;19.90;99.90;;;;;;5093784;28;20273;-67
2023/08/09 10:19:44;;;;;;;3.10;1.50;;;20.00;99.90;;;;;;5093599;28;20205;-67
2023/08/09 10:22:33;;;;;;;3.67;1.50;;;20.20;99.90;;;;;;5093191;28;20200;-67
2023/08/09 10:28:49;;;;;;;2.27;1.60;;;19.90;99.90;;;;;;5107692;28;20654;-68
2023/08/09 10:31:47;;;;;;;2.60;1.60;;;19.80;99.90;;;;;;5113051;28;20204;-67
2023/08/09 10:34:35;;;;;;;3.27;1.50;;;19.80;99.90;;;;;;5114053;28;20218;-67
2023/08/09 10:37:24;;;;;;;2.43;1.70;;;19.40;99.90;;;;;;5113868;28;20195;-67
2023/08/09 10:40:18;;;;;;;2.13;1.50;;;19.50;99.90;;;;;;5113063;28;20203;-67
2023/08/09 10:43:05;;;;;;;3.50;1.77;;;19.60;99.90;;;;;;5113646;28;20248;-67
2023/08/09 10:45:54;;;;;;;3.60;1.70;;;19.40;99.90;;;;;;5113440;28;20591;-67
2023/08/09 10:48:48;;;;;;;3.73;1.40;;;19.00;99.90;;;;;;5113461;28;20658;-67
2023/08/09 10:51:36;;;;;;;2.73;1.40;;;18.60;99.90;;;;;;5113212;28;20358;-67
2023/08/09 10:54:23;;;;;;;2.43;1.53;;;18.40;99.90;;;;;;5113207;28;20195;-67
2023/08/09 10:57:12;;;;;;;2.10;1.63;;;18.20;99.90;;;;;;5112514;28;20726;-66
2023/08/09 11:00:00;;;;;;;5.30;1.60;;;17.90;99.90;;;;;;5112289;28;20307;-67
2023/08/09 11:02:47;;;;;;;2.60;1.90;;;17.80;99.90;;;;;;5112493;28;20198;-67
2023/08/09 11:05:35;;;;;;;6.97;1.73;;;18.10;99.90;;;;;;5113706;28;20584;-67
2023/08/09 11:08:22;;;;;;;4.87;1.80;;;18.00;99.90;;;;;;5112769;28;20202;-67
2023/08/09 11:11:12;;;;;;;4.17;1.70;;;18.20;99.90;;;;;;5112336;28;20210;-67
2023/08/09 11:14:04;;;;;;;4.10;2.10;;;18.20;99.90;;;;;;5112440;28;20205;-67
2023/08/09 11:16:52;;;;;;;3.30;1.60;;;18.30;99.90;;;;;;5112812;28;20192;-66
2023/08/09 11:19:40;;;;;;;4.53;2.20;;;18.10;99.90;;;;;;5112285;28;20205;-67
2023/08/09 11:22:28;;;;;;;5.73;2.27;;;17.60;99.90;;;;;;5113003;28;20206;-67
2023/08/09 11:25:16;;;;;;;5.23;2.23;;;17.10;99.90;;;;;;5112606;28;20222;-67
2023/08/09 11:28:04;;;;;;;4.50;2.23;;;17.00;99.90;;;;;;5111951;28;20576;-66
2023/08/09 11:30:54;;;;;;;6.17;2.50;;;16.80;99.90;;;;;;5112793;28;20261;-66
2023/08/09 11:33:41;;;;;;;8.53;2.70;;;16.40;99.90;;;;;;5111943;28;20192;-66
2023/08/09 11:36:29;;;;;;;4.60;2.33;;;16.20;99.90;;;;;;5113045;28;20676;-67
2023/08/09 11:39:17;;;;;;;6.73;2.90;;;16.20;99.90;;;;;;5111886;28;20283;-67
2023/08/09 11:42:07;;;;;;;6.10;2.90;;;16.10;99.90;;;;;;5112642;28;20571;-66
2023/08/09 11:44:54;;;;;;;3.97;2.53;;;16.10;99.90;;;;;;5112118;28;20211;-67
2023/08/09 11:47:49;;;;;;;6.13;2.87;;;16.10;99.90;;;;;;5112295;28;20191;-66
2023/08/09 11:50:37;;;;;;;5.80;3.00;;;16.40;99.90;;;;;;5112635;28;20207;-67
2023/08/09 11:53:24;;;;;;;4.97;2.67;;;16.40;99.90;;;;;;5113398;28;20201;-66
2023/08/09 11:56:14;;;;;;;4.80;2.77;;;16.20;99.90;;;;;;5112539;28;20568;-67
2023/08/09 11:59:02;;;;;;;5.33;2.97;;;16.50;99.90;;;;;;5111359;28;20549;-66
2023/08/09 12:01:51;;;;;;;6.77;2.93;;;16.90;99.90;;;;;;5111273;28;20230;-67
2023/08/09 12:04:40;;;;;;;4.83;2.83;;;17.10;99.90;;;;;;5111869;28;20199;-66
2023/08/09 12:07:28;;;;;;;6.40;2.87;;;17.30;99.90;;;;;;5112617;28;20708;-67
2023/08/09 12:10:15;;;;;;;4.33;2.97;;;17.60;99.90;;;;;;5111044;28;20206;-67
2023/08/09 12:13:03;;;;;;;5.03;2.97;;;17.80;99.90;;;;;;5111228;28;20568;-67
2023/08/09 12:15:51;;;;;;;7.13;2.83;;;18.30;99.90;;;;;;5111936;28;20198;-67
2023/08/09 12:18:38;;;;;;;7.60;3.10;;;18.00;99.90;;;;;;5111155;28;20206;-67
2023/08/09 12:21:29;;;;;;;3.63;2.40;;;18.10;99.90;;;;;;5111264;28;20213;-67
2023/08/09 12:24:17;;;;;;;5.80;2.93;;;17.90;99.90;;;;;;5111024;28;20202;-67
2023/08/09 12:27:05;;;;;;;3.93;2.60;;;17.70;99.90;;;;;;5111581;28;20586;-67
2023/08/09 12:29:52;;;;;;;4.03;2.57;;;17.80;99.90;;;;;;5111839;28;20605;-67
2023/08/09 12:32:40;;;;;;;5.27;2.47;;;17.90;99.90;;;;;;5111742;28;20275;-67
2023/08/09 12:35:27;;;;;;;3.90;2.70;;;17.80;99.90;;;;;;5111727;28;20205;-67
2023/08/09 12:38:16;;;;;;;7.57;3.27;;;17.80;99.90;;;;;;5111318;28;20573;-67
2023/08/09 12:41:03;;;;;;;7.03;3.20;;;17.80;99.90;;;;;;5111606;28;20206;-67
2023/08/09 12:43:51;;;;;;;8.03;3.50;;;17.70;99.90;;;;;;5111598;28;20545;-67
2023/08/09 12:46:38;;;;;;;6.67;3.23;;;17.60;99.90;;;;;;5115185;28;20225;-67
2023/08/09 12:49:25;;;;;;;6.77;3.07;;;17.70;99.90;;;;;;5114962;28;20664;-67
2023/08/09 12:52:12;;;;;;;5.80;3.17;;;17.40;99.90;;;;;;5115517;28;20229;-67
2023/08/09 12:55:01;;;;;;;6.63;3.20;;;16.90;99.90;;;;;;5115126;28;20226;-67
2023/08/09 12:57:48;;;;;;;7.53;3.63;;;16.70;99.90;;;;;;5115580;28;20192;-67
2023/08/09 13:00:36;;;;;;;5.00;3.43;;;16.80;99.90;;;;;;5115542;28;20724;-67
2023/08/09 13:03:23;;;;;;;10.10;3.63;;;16.90;99.90;;;;;;5115006;28;20584;-67
2023/08/09 13:06:11;;;;;;;7.27;3.57;;;17.00;99.90;;;;;;5115171;28;20210;-67
2023/08/09 13:09:00;;;;;;;5.00;3.10;;;17.10;99.90;;;;;;5115285;28;20280;-67
2023/08/09 13:11:48;;;;;;;4.53;2.63;;;17.30;99.90;;;;;;5115146;28;20191;-66
2023/08/09 13:14:36;;;;;;;4.67;3.10;;;17.60;99.90;;;;;;5114928;28;20200;-66
2023/08/09 13:17:23;;;;;;;6.73;3.13;;;17.80;99.90;;;;;;5115722;28;20215;-67
2023/08/09 13:20:12;;;;;;;6.07;3.50;;;17.90;99.90;;;;;;5114721;28;20195;-67
2023/08/09 13:22:59;;;;;;;8.10;3.00;;;17.70;99.90;;;;;;5114483;28;20560;-67
2023/08/09 13:25:47;;;;;;;4.97;2.83;;;17.70;99.90;;;;;;5113465;28;20223;-67
2023/08/09 13:28:35;;;;;;;4.60;2.67;;;17.80;99.90;;;;;;5114955;28;20229;-67
2023/08/09 13:31:23;;;;;;;5.73;3.23;;;17.70;99.90;;;;;;5115616;28;20199;-67
2023/08/09 13:34:10;;;;;;;3.87;2.70;;;17.70;99.90;;;;;;5114983;28;20191;-67
2023/08/09 13:36:58;;;;;;;7.60;3.00;;;17.70;99.90;;;;;;5114762;28;20196;-66
2023/08/09 13:39:45;;;;;;;5.17;2.63;;;17.60;99.90;;;;;;5114796;28;20210;-66
2023/08/09 13:42:33;;;;;;;9.33;2.80;;;17.50;99.90;;;;;;5114523;28;20747;-67
2023/08/09 13:45:21;;;;;;;5.20;2.70;;;17.70;99.90;;;;;;5115268;28;20201;-67
2023/08/09 13:48:09;;;;;;;4.90;2.60;;;17.90;99.90;;;;;;5114056;28;20206;-67
2023/08/09 13:50:57;;;;;;;5.50;2.83;;;18.00;99.90;;;;;;5114265;28;20199;-67
2023/08/09 13:53:45;;;;;;;3.63;2.57;;;17.60;99.90;;;;;;5114358;28;20203;-66
2023/08/09 13:56:35;;;;;;;6.40;2.67;;;17.40;99.90;;;;;;5114454;28;20199;-67
2023/08/09 13:59:22;;;;;;;4.93;2.20;;;17.50;99.90;;;;;;5113945;28;20236;-67
2023/08/09 14:02:11;;;;;;;8.03;2.40;;;17.20;99.90;;;;;;5114409;28;20230;-67
2023/08/09 14:04:59;;;;;;;4.13;2.53;;;17.20;99.90;;;;;;5114199;28;20587;-67
2023/08/09 14:07:46;;;;;;;3.90;2.70;;;17.20;99.90;;;;;;5113788;28;20274;-66
2023/08/09 14:10:33;;;;;;;5.00;2.40;;;17.10;99.90;;;;;;5094363;28;20195;-67
2023/08/09 14:13:20;;;;;;;7.13;2.63;;;17.00;99.90;;;;;;5092609;28;20195;-67
2023/08/09 14:16:08;;;;;;;4.00;2.40;;;16.90;99.90;;;;;;5092560;28;20203;-67
2023/08/09 14:18:56;;;;;;;5.17;2.70;;;16.90;99.90;;;;;;5092749;28;20207;-67
2023/08/09 14:21:44;;;;;;;6.07;2.30;;;16.90;99.90;;;;;;5092547;28;20200;-67
2023/08/09 14:24:31;;;;;;;5.17;2.50;;;16.90;99.90;;;;;;5094213;28;20200;-67
2023/08/09 14:27:18;;;;;;;4.00;2.30;;;16.90;99.90;;;;;;5095566;28;20704;-67
2023/08/09 14:30:07;;;;;;;4.10;2.90;;;17.00;99.90;;;;;;5113765;28;20212;-67
2023/08/09 14:32:54;;;;;;;4.70;2.70;;;17.10;99.90;;;;;;5113039;28;20203;-67
2023/08/09 14:35:43;;;;;;;5.90;2.60;;;17.20;99.90;;;;;;5113236;28;20267;-67